createdAt,value
2018-06-19T00:00:00.115Z,3.62
2018-06-19T00:02:29.498Z,3.17
2018-06-19T00:04:58.725Z,3.00
2018-06-19T00:07:27.492Z,3.25
2018-06-19T00:09:56.698Z,3.12
2018-06-19T00:12:25.994Z,3.30
2018-06-19T00:14:55.273Z,3.20
2018-06-19T00:17:24.410Z,3.60
2018-06-19T00:19:54.715Z,3.50
2018-06-19T00:22:23.516Z,3.60
2018-06-19T00:24:53.190Z,3.50
2018-06-19T00:27:22.282Z,3.75
2018-06-19T00:29:52.350Z,3.60
2018-06-19T00:32:21.661Z,3.65
2018-06-19T00:34:51.080Z,3.77
2018-06-19T00:37:20.382Z,3.37
2018-06-19T00:39:49.866Z,3.05
2018-06-19T00:42:19.180Z,3.47
2018-06-19T00:44:48.547Z,3.45
2018-06-19T00:47:17.822Z,3.62
2018-06-19T00:49:46.950Z,3.35
2018-06-19T00:52:16.243Z,3.72
2018-06-19T00:54:45.414Z,3.20
2018-06-19T00:57:14.629Z,3.22
2018-06-19T00:59:44.064Z,3.62
2018-06-19T01:02:13.403Z,3.60
2018-06-19T01:04:42.602Z,3.58
2018-06-19T01:07:12.059Z,3.87
2018-06-19T01:09:41.270Z,3.20
2018-06-19T01:12:10.566Z,3.40
2018-06-19T01:14:39.846Z,3.55
2018-06-19T01:17:09.108Z,3.10
2018-06-19T01:19:38.466Z,3.27
2018-06-19T01:22:07.804Z,3.60
2018-06-19T01:24:37.118Z,3.47
2018-06-19T01:27:06.399Z,3.35
2018-06-19T01:29:35.710Z,3.40
2018-06-19T01:32:04.959Z,3.30
2018-06-19T01:34:34.616Z,3.55
2018-06-19T01:37:03.743Z,3.90
2018-06-19T01:39:33.034Z,3.47
2018-06-19T01:42:02.333Z,3.92
2018-06-19T01:44:31.549Z,3.40
2018-06-19T01:47:01.203Z,3.65
2018-06-19T01:49:30.518Z,4.05
2018-06-19T01:51:59.754Z,3.87
2018-06-19T01:54:29.042Z,3.12
2018-06-19T01:56:58.362Z,4.10
2018-06-19T01:59:27.762Z,3.50
2018-06-19T02:01:56.958Z,3.73
2018-06-19T02:04:26.334Z,3.92
2018-06-19T02:06:55.546Z,3.87
2018-06-19T02:09:24.687Z,4.00
2018-06-19T02:11:53.877Z,3.67
2018-06-19T02:14:23.016Z,3.45
2018-06-19T02:16:52.112Z,3.70
2018-06-19T02:19:22.142Z,3.65
2018-06-19T02:21:51.473Z,3.80
2018-06-19T02:24:20.670Z,3.60
2018-06-19T02:26:49.404Z,3.72
2018-06-19T02:29:18.633Z,3.90
2018-06-19T02:31:47.870Z,3.37
2018-06-19T02:34:17.014Z,3.62
2018-06-19T02:36:46.526Z,3.72
2018-06-19T02:39:15.825Z,3.70
2018-06-19T02:41:45.154Z,3.47
2018-06-19T02:44:14.350Z,4.10
2018-06-19T02:46:43.956Z,3.50
2018-06-19T02:49:13.180Z,3.83
2018-06-19T02:51:42.503Z,3.47
2018-06-19T02:54:11.961Z,3.57
2018-06-19T02:56:41.398Z,3.33
2018-06-19T02:59:10.706Z,3.60
2018-06-19T03:01:40.104Z,3.23
2018-06-19T03:04:09.239Z,3.37
2018-06-19T03:06:38.393Z,3.90
2018-06-19T03:09:11.485Z,3.37
2018-06-19T03:11:40.773Z,3.50
2018-06-19T03:14:10.003Z,3.70
2018-06-19T03:16:39.242Z,3.80
2018-06-19T03:19:08.410Z,3.70
2018-06-19T03:21:37.727Z,3.55
2018-06-19T03:24:07.040Z,3.50
2018-06-19T03:26:36.342Z,4.37
2018-06-19T03:29:05.568Z,3.75
2018-06-19T03:31:35.108Z,3.30
2018-06-19T03:34:04.505Z,3.80
2018-06-19T03:36:33.853Z,3.45
2018-06-19T03:39:03.240Z,3.98
2018-06-19T03:41:32.495Z,3.83
2018-06-19T03:44:01.853Z,4.28
2018-06-19T03:46:31.159Z,3.47
2018-06-19T03:49:02.390Z,3.62
2018-06-19T03:51:31.802Z,4.00
2018-06-19T03:54:01.519Z,3.67
2018-06-19T03:56:31.434Z,3.60
2018-06-19T03:59:00.575Z,3.80
2018-06-19T04:01:29.987Z,3.77
2018-06-19T04:03:59.359Z,3.70
2018-06-19T04:06:31.558Z,3.20
2018-06-19T04:09:02.806Z,3.60
2018-06-19T04:11:32.094Z,3.17
2018-06-19T04:14:01.416Z,3.53
2018-06-19T04:16:31.800Z,3.43
2018-06-19T04:19:01.515Z,3.40
2018-06-19T04:21:30.942Z,3.58
2018-06-19T04:24:00.302Z,3.37
2018-06-19T04:26:29.541Z,3.40
2018-06-19T04:28:58.910Z,3.70
2018-06-19T04:31:28.370Z,3.62
2018-06-19T04:33:57.926Z,3.50
2018-06-19T04:36:27.082Z,3.77
2018-06-19T04:38:56.592Z,3.37
2018-06-19T04:41:25.896Z,3.50
2018-06-19T04:43:55.054Z,3.42
2018-06-19T04:46:24.591Z,3.50
2018-06-19T04:48:53.793Z,2.92
2018-06-19T04:51:23.957Z,3.33
2018-06-19T04:53:53.282Z,3.35
2018-06-19T04:56:22.657Z,3.45
2018-06-19T04:58:51.854Z,3.35
2018-06-19T05:01:21.158Z,3.67
2018-06-19T05:03:50.482Z,3.67
2018-06-19T05:06:19.787Z,3.55
2018-06-19T05:08:49.134Z,3.58
2018-06-19T05:11:18.414Z,3.30
2018-06-19T05:13:47.650Z,2.87
2018-06-19T05:16:16.951Z,3.42
2018-06-19T05:18:46.546Z,3.60
2018-06-19T05:21:16.335Z,2.98
2018-06-19T05:23:45.688Z,3.47
2018-06-19T05:26:15.159Z,3.52
2018-06-19T05:28:44.527Z,2.85
2018-06-19T05:31:14.234Z,3.22
2018-06-19T05:33:43.632Z,3.10
2018-06-19T05:36:13.062Z,3.25
2018-06-19T05:38:42.380Z,3.42
2018-06-19T05:41:13.748Z,2.95
2018-06-19T05:43:44.614Z,2.90
2018-06-19T05:46:13.915Z,3.10
2018-06-19T05:48:46.451Z,3.05
2018-06-19T05:51:15.770Z,3.00
2018-06-19T05:53:48.752Z,3.55
2018-06-19T05:56:18.611Z,3.37
2018-06-19T05:58:48.082Z,3.00
2018-06-19T06:01:18.636Z,2.98
2018-06-19T06:03:48.697Z,3.47
2018-06-19T06:06:19.476Z,3.27
2018-06-19T06:08:48.886Z,3.00
2018-06-19T06:11:22.231Z,3.25
2018-06-19T06:13:52.768Z,3.25
2018-06-19T06:16:22.156Z,3.33
2018-06-19T06:18:51.318Z,3.30
2018-06-19T06:21:20.706Z,2.95
2018-06-19T06:23:50.111Z,3.20
2018-06-19T06:26:19.591Z,3.08
2018-06-19T06:28:48.907Z,2.75
2018-06-19T06:31:18.377Z,3.20
2018-06-19T06:33:47.790Z,3.50
2018-06-19T06:36:17.035Z,3.37
2018-06-19T06:38:46.691Z,2.98
2018-06-19T06:41:16.236Z,2.60
2018-06-19T06:43:45.492Z,3.02
2018-06-19T06:46:15.008Z,2.98
2018-06-19T06:48:44.396Z,3.17
2018-06-19T06:51:13.814Z,3.47
2018-06-19T06:53:43.100Z,3.22
2018-06-19T06:56:13.660Z,3.27
2018-06-19T06:58:43.106Z,3.05
2018-06-19T07:01:13.176Z,3.12
2018-06-19T07:03:45.751Z,3.40
2018-06-19T07:06:24.526Z,2.70
2018-06-19T07:09:02.092Z,3.10
2018-06-19T07:11:38.414Z,3.12
2018-06-19T07:14:13.270Z,3.25
2018-06-19T07:16:47.133Z,2.42
2018-06-19T07:19:23.141Z,2.95
2018-06-19T07:22:00.069Z,2.95
2018-06-19T07:24:37.857Z,2.77
2018-06-19T07:27:12.720Z,2.65
2018-06-19T07:29:46.881Z,2.65
2018-06-19T07:32:22.360Z,2.47
2018-06-19T07:34:53.820Z,2.35
2018-06-19T07:40:57.410Z,2.42
2018-06-19T07:43:29.036Z,2.85
2018-06-19T07:46:01.314Z,2.70
2018-06-19T07:48:33.830Z,2.60
2018-06-19T07:51:06.889Z,2.60
2018-06-19T07:53:38.614Z,2.70
2018-06-19T07:56:10.259Z,2.35
2018-06-19T07:58:42.348Z,2.52
2018-06-19T08:01:14.153Z,2.37
2018-06-19T08:03:45.981Z,2.40
2018-06-19T08:06:17.609Z,2.25
2018-06-19T08:08:49.375Z,2.17
2018-06-19T08:11:22.157Z,2.37
2018-06-19T08:13:53.726Z,2.45
2018-06-19T08:16:25.464Z,2.80
2018-06-19T08:18:59.193Z,2.83
2018-06-19T08:21:35.217Z,2.45
2018-06-19T08:24:09.420Z,2.40
2018-06-19T08:26:45.431Z,2.67
2018-06-19T08:29:20.734Z,2.65
2018-06-19T08:31:55.893Z,2.90
2018-06-19T08:34:29.945Z,2.25
2018-06-19T08:37:06.479Z,2.20
2018-06-19T08:39:40.770Z,2.55
2018-06-19T08:42:14.768Z,2.30
2018-06-19T08:44:50.372Z,2.47
2018-06-19T08:47:25.990Z,2.37
2018-06-19T08:50:04.737Z,2.90
2018-06-19T08:52:40.830Z,1.98
2018-06-19T08:55:15.290Z,2.75
2018-06-19T08:57:49.559Z,2.50
2018-06-19T09:00:25.826Z,2.50
2018-06-19T09:02:59.472Z,2.87
2018-06-19T09:05:31.559Z,2.98
2018-06-19T09:08:02.736Z,2.55
2018-06-19T09:10:34.005Z,2.60
2018-06-19T09:13:04.757Z,2.27
2018-06-19T09:15:35.546Z,2.67
2018-06-19T09:18:06.381Z,2.70
2018-06-19T09:20:37.213Z,2.55
2018-06-19T09:23:07.896Z,2.37
2018-06-19T09:25:39.525Z,2.33
2018-06-19T09:28:11.313Z,2.50
2018-06-19T09:30:42.112Z,2.30
2018-06-19T09:33:12.837Z,1.98
2018-06-19T09:35:43.599Z,2.00
2018-06-19T09:38:14.261Z,2.42
2018-06-19T09:40:45.008Z,2.22
2018-06-19T09:43:15.780Z,2.10
2018-06-19T09:45:46.412Z,3.60
2018-06-19T09:48:17.304Z,2.58
2018-06-19T09:50:48.164Z,2.98
2018-06-19T09:53:18.390Z,2.75
2018-06-19T09:55:49.223Z,2.55
2018-06-19T09:58:18.577Z,3.05
2018-06-19T10:00:48.706Z,3.02
2018-06-19T10:03:19.064Z,2.90
2018-06-19T10:05:48.663Z,2.50
2018-06-19T10:08:18.877Z,2.50
2018-06-19T10:10:48.214Z,3.30
2018-06-19T10:13:17.490Z,3.35
2018-06-19T10:15:47.507Z,2.70
2018-06-19T10:18:16.782Z,2.80
2018-06-19T10:20:45.868Z,1.90
2018-06-19T10:23:15.738Z,2.47
2018-06-19T10:25:44.829Z,2.67
2018-06-19T10:28:14.097Z,2.20
2018-06-19T10:30:43.489Z,2.35
2018-06-19T10:33:13.349Z,2.12
2018-06-19T10:35:42.518Z,2.45
2018-06-19T10:38:11.632Z,2.02
2018-06-19T10:40:40.817Z,2.40
2018-06-19T10:43:10.309Z,2.22
2018-06-19T10:45:40.567Z,2.17
2018-06-19T10:48:10.579Z,2.45
2018-06-19T10:50:39.986Z,1.70
2018-06-19T10:53:09.358Z,2.20
2018-06-19T10:55:38.647Z,2.00
2018-06-19T10:58:09.072Z,2.08
2018-06-19T11:00:39.669Z,1.98
2018-06-19T11:03:10.112Z,2.00
2018-06-19T11:05:40.438Z,2.25
2018-06-19T11:08:10.046Z,2.30
2018-06-19T11:10:39.645Z,2.15
2018-06-19T11:13:09.512Z,2.05
2018-06-19T11:15:40.941Z,2.50
2018-06-19T11:18:10.187Z,2.65
2018-06-19T11:20:39.499Z,3.40
2018-06-19T11:23:08.770Z,2.30
2018-06-19T11:25:41.093Z,2.08
2018-06-19T11:28:11.293Z,2.00
2018-06-19T11:30:40.897Z,2.30
2018-06-19T11:33:10.503Z,1.90
2018-06-19T11:35:39.838Z,2.02
2018-06-19T11:38:09.659Z,2.20
2018-06-19T11:40:38.862Z,6.72
2018-06-19T11:43:08.306Z,2.05
2018-06-19T11:45:37.678Z,2.40
2018-06-19T11:48:07.735Z,6.22
2018-06-19T11:50:37.357Z,5.03
2018-06-19T11:53:06.618Z,4.58
2018-06-19T11:55:36.111Z,2.58
2018-06-19T11:58:05.649Z,2.62
2018-06-19T12:00:35.441Z,2.33
2018-06-19T12:03:05.539Z,2.12
2018-06-19T12:05:35.036Z,1.98
2018-06-19T12:08:04.406Z,2.20
2018-06-19T12:10:33.633Z,1.80
2018-06-19T12:13:02.996Z,2.00
2018-06-19T12:15:32.399Z,1.70
2018-06-19T12:18:02.008Z,1.82
2018-06-19T12:20:32.417Z,2.00
2018-06-19T12:23:01.795Z,2.17
2018-06-19T12:25:31.102Z,2.30
2018-06-19T12:28:00.798Z,2.05
2018-06-19T12:30:30.910Z,2.10
2018-06-19T12:33:00.351Z,2.40
2018-06-19T12:35:29.647Z,2.33
2018-06-19T12:37:58.401Z,2.00
2018-06-19T12:40:27.799Z,1.85
2018-06-19T12:42:57.221Z,2.00
2018-06-19T12:45:26.110Z,1.92
2018-06-19T12:47:55.663Z,2.30
2018-06-19T12:50:37.364Z,2.20
2018-06-19T12:53:18.353Z,1.77
2018-06-19T12:55:59.086Z,2.10
2018-06-19T12:58:28.381Z,1.70
2018-06-19T13:00:57.734Z,2.20
2018-06-19T13:03:37.976Z,2.15
2018-06-19T13:06:18.200Z,1.90
2018-06-19T13:08:47.430Z,1.92
2018-06-19T13:11:16.880Z,2.02
2018-06-19T13:13:57.421Z,2.10
2018-06-19T13:16:37.518Z,1.85
2018-06-19T13:19:17.527Z,2.00
2018-06-19T13:21:46.866Z,2.10
2018-06-19T13:24:16.287Z,2.20
2018-06-19T13:26:45.560Z,2.30
2018-06-19T13:29:54.663Z,2.00
2018-06-19T13:32:24.193Z,1.82
2018-06-19T13:34:53.600Z,2.27
2018-06-19T13:37:23.231Z,1.90
2018-06-19T13:41:10.930Z,2.17
2018-06-19T13:43:50.980Z,2.05
2018-06-19T13:46:20.690Z,2.00
2018-06-19T13:48:50.093Z,1.90
2018-06-19T13:51:19.594Z,1.80
2018-06-19T13:53:48.863Z,1.90
2018-06-19T13:57:35.232Z,2.85
2018-06-19T14:00:06.642Z,2.17
2018-06-19T14:02:36.217Z,2.30
2018-06-19T14:05:06.163Z,2.30
2018-06-19T14:07:41.108Z,2.30
2018-06-19T14:10:25.085Z,2.27
2018-06-19T14:13:08.845Z,2.10
2018-06-19T14:15:46.004Z,2.00
2018-06-19T14:18:16.358Z,2.40
2018-06-19T14:20:45.737Z,1.75
2018-06-19T14:23:15.309Z,1.77
2018-06-19T14:25:44.587Z,2.02
2018-06-19T14:28:13.897Z,1.87
2018-06-19T14:30:43.345Z,1.87
2018-06-19T14:33:13.591Z,1.87
2018-06-19T14:35:42.900Z,1.80
2018-06-19T14:38:12.210Z,1.75
2018-06-19T14:40:41.576Z,2.33
2018-06-19T14:43:10.866Z,2.40
2018-06-19T14:45:40.587Z,2.25
2018-06-19T14:48:09.848Z,1.85
2018-06-19T14:50:39.047Z,1.90
2018-06-19T14:53:08.285Z,1.95
2018-06-19T14:55:37.469Z,2.02
2018-06-19T14:58:06.662Z,1.98
2018-06-19T15:00:35.915Z,1.90
2018-06-19T15:03:05.229Z,2.58
2018-06-19T15:05:34.548Z,2.25
2018-06-19T15:08:03.985Z,2.30
2018-06-19T15:10:33.319Z,2.42
2018-06-19T15:13:02.633Z,2.08
2018-06-19T15:15:32.018Z,2.67
2018-06-19T15:18:01.263Z,2.62
2018-06-19T15:20:30.737Z,2.10
2018-06-19T15:23:00.071Z,2.10
2018-06-19T15:25:29.343Z,1.90
2018-06-19T15:27:59.633Z,2.30
2018-06-19T15:30:29.097Z,2.10
2018-06-19T15:32:58.288Z,2.33
2018-06-19T15:35:27.719Z,2.15
2018-06-19T15:37:56.959Z,1.90
2018-06-19T15:40:26.326Z,2.00
2018-06-19T15:42:55.912Z,2.00
2018-06-19T15:45:26.239Z,2.00
2018-06-19T15:47:55.535Z,2.12
2018-06-19T15:50:24.880Z,2.40
2018-06-19T15:52:54.628Z,2.27
2018-06-19T15:55:23.986Z,2.47
2018-06-19T15:57:53.285Z,2.40
2018-06-19T16:00:22.589Z,2.25
2018-06-19T16:02:51.838Z,2.08
2018-06-19T16:05:21.606Z,2.22
2018-06-19T16:07:55.782Z,2.02
2018-06-19T16:10:24.999Z,2.08
2018-06-19T16:12:54.349Z,2.37
2018-06-19T16:15:23.759Z,2.33
2018-06-19T16:17:53.151Z,2.90
2018-06-19T16:20:22.580Z,2.60
2018-06-19T16:22:52.106Z,7.72
2018-06-19T16:25:21.495Z,2.65
2018-06-19T16:27:50.686Z,3.22
2018-06-19T16:30:19.990Z,3.70
2018-06-19T16:32:49.266Z,2.98
2018-06-19T16:35:18.412Z,3.20
2018-06-19T16:37:47.970Z,2.60
2018-06-19T16:40:17.355Z,2.02
2018-06-19T16:42:46.898Z,2.40
2018-06-19T16:45:16.571Z,1.72
2018-06-19T16:47:46.136Z,2.20
2018-06-19T16:50:15.478Z,2.20
2018-06-19T16:52:44.759Z,2.00
2018-06-19T16:55:14.161Z,2.25
2018-06-19T16:57:43.508Z,1.95
2018-06-19T17:00:12.895Z,1.90
2018-06-19T17:02:42.194Z,2.10
2018-06-19T17:05:11.468Z,2.20
2018-06-19T17:07:42.827Z,1.90
2018-06-19T17:10:13.418Z,2.20
2018-06-19T17:12:43.363Z,2.08
2018-06-19T17:15:12.886Z,2.20
2018-06-19T17:17:43.361Z,2.12
2018-06-19T17:20:12.905Z,2.20
2018-06-19T17:22:42.281Z,2.40
2018-06-19T17:25:11.833Z,2.60
2018-06-19T17:27:41.338Z,2.25
2018-06-19T17:30:10.991Z,2.67
2018-06-19T17:32:40.207Z,2.27
2018-06-19T17:35:09.853Z,2.72
2018-06-19T17:37:39.284Z,2.37
2018-06-19T17:40:08.541Z,2.27
2018-06-19T17:42:37.889Z,3.10
2018-06-19T17:45:08.038Z,2.40
2018-06-19T17:47:37.322Z,3.20
2018-06-19T17:50:07.068Z,3.10
2018-06-19T17:52:39.576Z,3.10
2018-06-19T17:55:09.070Z,2.60
2018-06-19T17:57:38.431Z,3.72
2018-06-19T18:00:07.695Z,2.42
2018-06-19T18:02:37.237Z,2.10
2018-06-19T18:05:06.569Z,2.33
2018-06-19T18:07:35.749Z,3.62
2018-06-19T18:10:05.085Z,2.30
2018-06-19T18:12:34.404Z,2.85
2018-06-19T18:15:03.794Z,3.50
2018-06-19T18:17:33.159Z,3.10
2018-06-19T18:20:02.567Z,2.83
2018-06-19T18:22:32.041Z,3.08
2018-06-19T18:25:01.507Z,2.62
2018-06-19T18:27:30.800Z,2.62
2018-06-19T18:30:00.169Z,2.30
2018-06-19T18:32:29.479Z,2.77
2018-06-19T18:34:58.691Z,2.60
2018-06-19T18:37:27.882Z,3.72
2018-06-19T18:39:57.918Z,2.60
2018-06-19T18:42:27.305Z,3.45
2018-06-19T18:44:56.439Z,2.98
2018-06-19T18:47:25.791Z,2.70
2018-06-19T18:49:55.719Z,3.25
2018-06-19T18:52:24.999Z,3.15
2018-06-19T18:54:54.361Z,2.77
2018-06-19T18:57:23.434Z,3.12
2018-06-19T18:59:52.732Z,3.27
2018-06-19T19:02:22.204Z,3.00
2018-06-19T19:04:51.600Z,3.08
2018-06-19T19:07:21.014Z,3.17
2018-06-19T19:09:55.282Z,2.67
2018-06-19T19:12:24.581Z,2.33
2018-06-19T19:14:59.079Z,2.45
2018-06-19T19:17:33.438Z,3.90
2018-06-19T19:20:02.828Z,3.00
2018-06-19T19:22:32.201Z,2.60
2018-06-19T19:25:01.367Z,3.35
2018-06-19T19:27:35.765Z,3.30
2018-06-19T19:30:05.272Z,2.40
2018-06-19T19:32:34.924Z,2.70
2018-06-19T19:35:04.504Z,2.80
2018-06-19T19:37:39.056Z,2.83
2018-06-19T19:40:08.477Z,2.92
2018-06-19T19:42:37.971Z,2.95
2018-06-19T19:45:07.317Z,2.65
2018-06-19T19:47:41.723Z,3.25
2018-06-19T19:50:10.881Z,2.40
2018-06-19T19:52:40.153Z,2.30
2018-06-19T19:55:09.489Z,2.67
2018-06-19T19:57:43.768Z,2.60
2018-06-19T20:00:17.175Z,3.60
2018-06-19T20:02:46.424Z,2.70
2018-06-19T20:05:15.820Z,2.92
2018-06-19T20:07:45.024Z,2.40
2018-06-19T20:10:14.571Z,2.50
2018-06-19T20:12:43.912Z,2.60
2018-06-19T20:15:13.310Z,2.55
2018-06-19T20:17:43.084Z,3.05
2018-06-19T20:20:12.659Z,2.40
2018-06-19T20:22:42.473Z,3.17
2018-06-19T20:25:12.692Z,2.90
2018-06-19T20:27:43.054Z,2.83
2018-06-19T20:30:12.607Z,2.83
2018-06-19T20:32:41.999Z,2.75
2018-06-19T20:35:11.329Z,2.87
2018-06-19T20:37:40.784Z,2.60
2018-06-19T20:40:10.061Z,3.17
2018-06-19T20:42:39.231Z,2.77
2018-06-19T20:45:08.595Z,2.40
2018-06-19T20:47:38.111Z,3.05
2018-06-19T20:50:07.342Z,3.02
2018-06-19T20:52:36.604Z,2.85
2018-06-19T20:55:06.831Z,3.22
2018-06-19T20:57:36.048Z,3.00
2018-06-19T21:00:05.316Z,2.62
2018-06-19T21:02:35.382Z,2.70
2018-06-19T21:05:04.827Z,2.72
2018-06-19T21:07:34.032Z,2.87
2018-06-19T21:10:03.496Z,2.60
2018-06-19T21:12:32.886Z,2.55
2018-06-19T21:15:02.427Z,2.87
2018-06-19T21:17:31.846Z,3.42
2018-06-19T21:20:01.099Z,2.70
2018-06-19T21:22:30.385Z,3.10
2018-06-19T21:24:59.781Z,2.77
2018-06-19T21:27:29.132Z,2.50
2018-06-19T21:29:58.568Z,2.72
2018-06-19T21:32:27.730Z,2.45
2018-06-19T21:34:57.206Z,2.62
2018-06-19T21:37:26.543Z,3.08
2018-06-19T21:39:55.763Z,3.33
2018-06-19T21:42:25.069Z,2.98
2018-06-19T21:44:54.326Z,3.12
2018-06-19T21:47:23.755Z,2.80
2018-06-19T21:49:52.950Z,2.85
2018-06-19T21:52:22.000Z,2.52
2018-06-19T21:54:51.284Z,2.98
2018-06-19T21:57:20.606Z,5.50
2018-06-19T21:59:49.873Z,3.30
2018-06-19T22:02:23.657Z,3.12
2018-06-19T22:04:53.144Z,2.90
2018-06-19T22:07:22.459Z,2.98
2018-06-19T22:09:51.694Z,2.85
2018-06-19T22:12:21.263Z,2.67
2018-06-19T22:14:50.474Z,2.98
2018-06-19T22:17:19.759Z,3.25
2018-06-19T22:19:49.195Z,3.30
2018-06-19T22:22:18.566Z,2.85
2018-06-19T22:24:48.108Z,3.08
2018-06-19T22:27:17.272Z,3.12
2018-06-19T22:29:46.496Z,3.05
2018-06-19T22:32:15.658Z,2.98
2018-06-19T22:34:44.894Z,3.25
2018-06-19T22:37:14.154Z,3.10
2018-06-19T22:39:44.367Z,3.15
2018-06-19T22:42:13.723Z,2.80
2018-06-19T22:44:43.081Z,2.92
2018-06-19T22:47:12.334Z,2.90
2018-06-19T22:49:41.518Z,2.50
2018-06-19T22:52:10.822Z,3.08
2018-06-19T22:54:40.150Z,3.00
2018-06-19T22:57:09.531Z,3.15
2018-06-19T22:59:38.761Z,2.95
2018-06-19T23:02:08.139Z,3.12
2018-06-19T23:04:37.443Z,3.00
2018-06-19T23:07:06.789Z,3.30
2018-06-19T23:09:36.184Z,3.22
2018-06-19T23:12:05.578Z,3.00
2018-06-19T23:14:34.740Z,2.83
2018-06-19T23:17:04.149Z,2.95
2018-06-19T23:19:33.463Z,3.15
2018-06-19T23:22:02.989Z,2.67
2018-06-19T23:24:32.060Z,3.02
2018-06-19T23:27:01.319Z,2.80
2018-06-19T23:29:30.519Z,3.08
2018-06-19T23:31:59.733Z,2.77
2018-06-19T23:34:28.877Z,3.20
2018-06-19T23:36:58.242Z,3.10
2018-06-19T23:39:27.521Z,2.45
2018-06-19T23:41:56.865Z,2.92
2018-06-19T23:44:26.176Z,2.80
2018-06-19T23:46:55.519Z,3.55
2018-06-19T23:49:25.038Z,3.15
2018-06-19T23:51:54.467Z,3.20
2018-06-19T23:54:24.035Z,2.80
2018-06-19T23:56:53.318Z,3.33
2018-06-19T23:59:22.506Z,2.95
